Time;durP1;ratioP1;P1;durP2;ratioP2;P2;SDS_P1;SDS_P2;PMS_P1;PMS_P2;Temp;Humidity;BMP_temperature;BMP_pressure;BME280_temperature;BME280_humidity;BME280_pressure;Samples;Min_cycle;Max_cycle;Signal;HPM_P1;HPM_P2
2022/07/04 00:00:36;;;;;;;2.40;1.83;;;13.60;99.90;;;;;;4926291;29;20044;-74
2022/07/04 00:03:02;;;;;;;3.38;2.10;;;13.50;99.90;;;;;;4918270;29;20558;-72
2022/07/04 00:05:28;;;;;;;2.38;2.17;;;13.50;99.90;;;;;;4917080;29;20158;-73
2022/07/04 00:07:53;;;;;;;2.72;1.92;;;13.50;99.90;;;;;;4910302;28;20078;-73
2022/07/04 00:10:22;;;;;;;2.80;2.03;;;13.50;99.90;;;;;;4915353;29;20842;-73
2022/07/04 00:12:49;;;;;;;5.18;2.47;;;13.50;99.90;;;;;;4909234;29;20419;-72
2022/07/04 00:15:15;;;;;;;3.40;2.30;;;13.50;99.90;;;;;;4921056;29;20079;-73
2022/07/04 00:17:41;;;;;;;3.58;2.30;;;13.50;99.90;;;;;;4914933;28;20494;-74
2022/07/04 00:20:08;;;;;;;3.53;2.72;;;13.50;99.90;;;;;;4927677;28;20051;-73
2022/07/04 00:22:34;;;;;;;2.22;2.00;;;13.50;99.90;;;;;;4917229;29;20056;-73
2022/07/04 00:25:00;;;;;;;2.30;2.10;;;13.40;99.90;;;;;;4903771;29;20048;-73
2022/07/04 00:27:26;;;;;;;3.63;2.75;;;13.40;99.90;;;;;;4903672;29;20457;-73
2022/07/04 00:29:51;;;;;;;2.67;2.45;;;13.30;99.90;;;;;;4911180;29;20067;-73
2022/07/04 00:32:18;;;;;;;3.72;2.08;;;13.30;99.90;;;;;;4907673;29;20053;-73
2022/07/04 00:34:44;;;;;;;2.72;2.28;;;13.30;99.90;;;;;;4903885;29;20131;-74
2022/07/04 00:37:09;;;;;;;4.15;2.55;;;13.20;99.90;;;;;;4915548;29;20043;-73
2022/07/04 00:39:35;;;;;;;2.38;2.17;;;13.20;99.90;;;;;;4923287;29;20059;-74
2022/07/04 00:42:01;;;;;;;5.05;2.70;;;13.20;99.90;;;;;;4921418;28;20122;-74
2022/07/04 00:44:27;;;;;;;4.22;2.55;;;13.20;99.90;;;;;;4920940;28;20048;-74
2022/07/04 00:46:52;;;;;;;2.90;2.33;;;13.20;99.90;;;;;;4926310;29;20117;-73
2022/07/04 00:49:18;;;;;;;3.22;2.75;;;13.30;99.90;;;;;;4928852;28;20175;-73
2022/07/04 00:51:45;;;;;;;3.42;2.80;;;13.30;99.90;;;;;;4919135;29;20097;-73
2022/07/04 00:54:13;;;;;;;3.72;2.55;;;13.30;99.90;;;;;;4917422;29;20849;-73
2022/07/04 00:56:41;;;;;;;2.60;2.33;;;13.40;99.90;;;;;;4918388;29;20410;-74
2022/07/04 00:59:07;;;;;;;3.05;2.78;;;13.30;99.90;;;;;;4924881;28;20047;-73
2022/07/04 01:01:34;;;;;;;3.35;2.42;;;13.40;99.90;;;;;;4928707;29;20058;-74
2022/07/04 01:04:01;;;;;;;4.07;2.60;;;13.40;99.90;;;;;;4919787;29;20472;-73
2022/07/04 01:06:27;;;;;;;5.00;2.83;;;13.40;99.90;;;;;;4923273;29;20087;-73
2022/07/04 01:08:53;;;;;;;3.72;2.42;;;13.40;99.90;;;;;;4906292;29;20465;-73
2022/07/04 01:11:19;;;;;;;2.53;2.15;;;13.40;99.90;;;;;;4922896;29;20584;-73
2022/07/04 01:13:44;;;;;;;4.22;2.90;;;13.40;99.90;;;;;;4909614;29;20059;-73
2022/07/04 01:16:11;;;;;;;3.35;3.08;;;13.40;99.90;;;;;;4915403;29;20048;-73
2022/07/04 01:18:38;;;;;;;10.75;2.70;;;13.40;99.90;;;;;;4922143;29;20058;-73
2022/07/04 01:21:05;;;;;;;3.17;2.55;;;13.40;99.90;;;;;;4916646;28;20043;-73
2022/07/04 01:23:31;;;;;;;4.50;2.85;;;13.30;99.90;;;;;;4922528;29;20048;-73
2022/07/04 01:25:57;;;;;;;2.65;2.25;;;13.30;99.90;;;;;;4927376;28;20110;-74
2022/07/04 01:28:24;;;;;;;4.75;2.78;;;13.30;99.90;;;;;;4920873;29;20303;-73
2022/07/04 01:30:50;;;;;;;2.78;2.58;;;13.30;99.90;;;;;;4923267;29;20484;-73
2022/07/04 01:33:17;;;;;;;4.97;2.45;;;13.20;99.90;;;;;;4923296;29;20118;-73
2022/07/04 01:35:47;;;;;;;4.82;3.03;;;13.20;99.90;;;;;;4928355;28;20680;-73
2022/07/04 01:38:13;;;;;;;3.97;2.85;;;13.30;99.90;;;;;;4921610;29;20054;-73
2022/07/04 01:40:39;;;;;;;4.22;2.90;;;13.30;99.90;;;;;;4935230;29;20077;-73
2022/07/04 01:43:05;;;;;;;4.13;2.78;;;13.20;99.90;;;;;;4924427;28;20051;-73
2022/07/04 01:45:34;;;;;;;3.00;2.50;;;13.20;99.90;;;;;;4924348;29;20051;-73
2022/07/04 01:48:00;;;;;;;3.70;2.30;;;13.10;99.90;;;;;;4926334;28;20052;-74
2022/07/04 01:50:26;;;;;;;8.48;3.03;;;13.10;99.90;;;;;;4917626;29;21418;-72
2022/07/04 01:52:52;;;;;;;4.60;2.55;;;13.00;99.90;;;;;;4924866;29;20563;-72
2022/07/04 01:55:18;;;;;;;2.72;2.30;;;13.00;99.90;;;;;;4913536;29;20063;-74
2022/07/04 01:57:43;;;;;;;4.38;2.83;;;12.90;99.90;;;;;;4910433;29;20044;-72
2022/07/04 02:02:55;;;;;;;5.28;2.80;;;12.90;99.90;;;;;;4913091;29;20129;-73
2022/07/04 02:05:22;;;;;;;5.35;2.97;;;12.90;99.90;;;;;;4932958;29;20122;-73
2022/07/04 02:07:48;;;;;;;3.17;2.35;;;12.80;99.90;;;;;;4922472;29;20063;-73
2022/07/04 02:10:14;;;;;;;2.60;2.22;;;12.80;99.90;;;;;;4915016;29;20139;-73
2022/07/04 02:15:24;;;;;;;2.78;2.38;;;12.70;99.90;;;;;;4914295;29;20059;-72
2022/07/04 02:17:50;;;;;;;4.03;2.70;;;12.60;99.90;;;;;;4918478;29;20051;-73
2022/07/04 02:20:16;;;;;;;4.13;2.78;;;12.60;99.90;;;;;;4917510;29;20054;-74
2022/07/04 02:22:42;;;;;;;4.55;2.90;;;12.60;99.90;;;;;;4919781;29;20062;-73
2022/07/04 02:25:08;;;;;;;4.00;3.47;;;12.60;99.90;;;;;;4924982;29;20054;-73
2022/07/04 02:27:34;;;;;;;3.78;2.38;;;12.60;99.90;;;;;;4923068;29;20062;-72
2022/07/04 02:30:00;;;;;;;3.72;2.45;;;12.60;99.90;;;;;;4914753;29;20107;-74
2022/07/04 02:32:25;;;;;;;3.25;2.95;;;12.50;99.90;;;;;;4913038;29;20541;-74
2022/07/04 02:34:51;;;;;;;3.78;2.85;;;12.40;99.90;;;;;;4921178;29;20046;-73
2022/07/04 02:37:17;;;;;;;3.53;3.17;;;12.40;99.90;;;;;;4918465;29;20149;-74
2022/07/04 02:39:43;;;;;;;4.97;3.13;;;12.50;99.90;;;;;;4919124;29;20122;-73
2022/07/04 02:42:09;;;;;;;3.65;2.55;;;12.40;99.90;;;;;;4921178;29;20051;-73
2022/07/04 02:44:34;;;;;;;5.63;3.30;;;12.50;99.90;;;;;;4918129;29;20051;-73
2022/07/04 02:47:00;;;;;;;5.32;3.47;;;12.50;99.90;;;;;;4921594;29;20128;-73
2022/07/04 02:49:26;;;;;;;3.60;2.58;;;12.50;99.90;;;;;;4910788;29;20043;-74
2022/07/04 02:51:52;;;;;;;4.20;3.80;;;12.50;99.90;;;;;;4922651;29;20060;-73
2022/07/04 02:54:18;;;;;;;4.85;2.33;;;12.40;99.90;;;;;;4916450;29;20066;-73
2022/07/04 02:56:44;;;;;;;4.40;3.83;;;12.40;99.90;;;;;;4927707;29;20060;-73
2022/07/04 02:59:10;;;;;;;3.38;3.03;;;12.40;99.90;;;;;;4922196;28;20597;-72
2022/07/04 03:01:35;;;;;;;3.45;2.95;;;12.50;99.90;;;;;;4916985;29;20147;-73
2022/07/04 03:04:02;;;;;;;6.45;3.47;;;12.50;99.90;;;;;;4921643;29;20044;-73
2022/07/04 03:06:28;;;;;;;4.18;3.42;;;12.40;99.90;;;;;;4921229;29;20067;-72
2022/07/04 03:08:54;;;;;;;4.43;2.95;;;12.40;99.90;;;;;;4919339;29;20054;-73
2022/07/04 03:11:20;;;;;;;5.88;3.70;;;12.40;99.90;;;;;;4931760;29;20051;-73
2022/07/04 03:13:46;;;;;;;4.53;3.53;;;12.40;99.90;;;;;;4911318;28;20058;-74
2022/07/04 03:16:11;;;;;;;5.30;3.90;;;12.30;99.90;;;;;;4914257;29;20059;-73
2022/07/04 03:18:38;;;;;;;6.07;3.60;;;12.30;99.90;;;;;;4915992;29;20052;-73
2022/07/04 03:21:07;;;;;;;5.32;3.42;;;12.30;99.90;;;;;;4921378;29;20093;-73
2022/07/04 03:23:34;;;;;;;4.68;3.00;;;12.30;99.90;;;;;;4914969;29;20056;-74
2022/07/04 03:26:00;;;;;;;4.68;3.60;;;12.30;99.90;;;;;;4924426;29;20475;-73
2022/07/04 03:28:26;;;;;;;5.78;3.47;;;12.30;99.90;;;;;;4917178;28;20065;-74
2022/07/04 03:30:52;;;;;;;4.72;3.53;;;12.30;99.90;;;;;;4928335;28;20062;-73
2022/07/04 03:33:18;;;;;;;4.35;3.33;;;12.30;99.90;;;;;;4914567;29;20059;-75
2022/07/04 03:35:44;;;;;;;5.05;3.70;;;12.20;99.90;;;;;;4917642;29;20047;-73
2022/07/04 03:38:09;;;;;;;5.90;4.05;;;12.20;99.90;;;;;;4920444;29;20051;-73
2022/07/04 03:40:35;;;;;;;4.03;3.35;;;12.20;99.90;;;;;;4919588;29;20039;-72
2022/07/04 03:43:03;;;;;;;5.47;3.20;;;12.20;99.90;;;;;;4917884;29;20055;-72
2022/07/04 03:45:29;;;;;;;5.40;3.25;;;12.20;99.90;;;;;;4916041;29;20044;-73
2022/07/04 03:47:56;;;;;;;4.97;4.22;;;12.20;99.90;;;;;;4918558;29;20082;-73
2022/07/04 03:50:22;;;;;;;5.82;4.50;;;12.30;99.90;;;;;;4919006;29;20111;-74
2022/07/04 03:52:48;;;;;;;8.27;5.15;;;12.30;99.90;;;;;;4920995;29;20575;-74
2022/07/04 03:55:14;;;;;;;4.68;3.65;;;12.30;99.90;;;;;;4921270;29;20052;-73
2022/07/04 03:57:40;;;;;;;5.35;3.67;;;12.40;99.90;;;;;;4914457;29;20059;-73
2022/07/04 04:00:07;;;;;;;4.45;3.95;;;12.40;99.90;;;;;;4912525;29;20051;-74
2022/07/04 04:02:33;;;;;;;5.80;4.63;;;12.40;99.90;;;;;;4913274;29;20056;-74
2022/07/04 04:07:43;;;;;;;7.28;4.63;;;12.50;99.90;;;;;;4906280;29;20134;-74
2022/07/04 04:10:10;;;;;;;7.53;5.05;;;12.60;99.90;;;;;;4908886;29;20055;-73
2022/07/04 04:12:35;;;;;;;4.35;3.92;;;12.60;99.90;;;;;;4914834;29;20051;-74
2022/07/04 04:15:01;;;;;;;9.77;5.38;;;12.70;99.90;;;;;;4916528;29;20052;-74
2022/07/04 04:17:27;;;;;;;7.47;4.65;;;12.60;99.90;;;;;;4907743;29;20039;-73
2022/07/04 04:19:52;;;;;;;6.13;4.43;;;12.70;99.90;;;;;;4915658;29;20093;-74
2022/07/04 04:22:18;;;;;;;5.57;5.03;;;12.70;99.90;;;;;;4888874;29;20576;-74
2022/07/04 04:24:44;;;;;;;7.25;5.63;;;12.80;99.90;;;;;;4913924;29;20055;-73
2022/07/04 04:27:09;;;;;;;5.43;4.68;;;12.80;99.90;;;;;;4910153;29;20051;-73
2022/07/04 04:29:35;;;;;;;6.25;4.97;;;12.90;99.90;;;;;;4918519;29;20055;-73
2022/07/04 04:32:01;;;;;;;6.28;5.38;;;12.90;99.90;;;;;;4916916;29;20519;-73
2022/07/04 04:34:26;;;;;;;6.93;4.72;;;12.90;99.90;;;;;;4916891;29;20044;-73
2022/07/04 04:36:52;;;;;;;5.85;5.22;;;13.00;99.90;;;;;;4918236;29;20059;-73
2022/07/04 04:39:18;;;;;;;5.18;4.68;;;13.10;99.90;;;;;;4910956;29;20051;-74
2022/07/04 04:41:43;;;;;;;8.88;6.15;;;13.20;99.90;;;;;;4919951;29;20047;-74
2022/07/04 04:44:09;;;;;;;6.47;5.30;;;13.20;99.90;;;;;;4926339;29;20043;-73
2022/07/04 04:46:35;;;;;;;7.10;5.32;;;13.30;99.90;;;;;;4920551;29;20056;-73
2022/07/04 04:49:00;;;;;;;7.38;5.80;;;13.40;99.90;;;;;;4919208;29;20047;-73
2022/07/04 04:51:26;;;;;;;10.73;6.38;;;13.50;99.90;;;;;;4919800;29;20669;-72
2022/07/04 04:53:52;;;;;;;12.05;5.72;;;13.60;99.90;;;;;;4930574;28;20153;-73
2022/07/04 04:56:17;;;;;;;7.45;5.72;;;13.70;99.90;;;;;;4921043;29;20055;-73
2022/07/04 04:58:43;;;;;;;12.27;6.97;;;13.80;99.90;;;;;;4910247;29;20047;-74
2022/07/04 05:01:09;;;;;;;7.45;6.40;;;13.90;99.90;;;;;;4914354;29;20147;-73
2022/07/04 05:03:34;;;;;;;7.43;5.93;;;13.90;99.90;;;;;;4915274;29;20082;-72
2022/07/04 05:06:00;;;;;;;7.22;5.70;;;14.00;99.90;;;;;;4918685;29;20912;-73
2022/07/04 05:08:26;;;;;;;6.65;5.40;;;14.10;99.90;;;;;;4912644;29;20543;-73
2022/07/04 05:10:52;;;;;;;6.50;5.93;;;14.00;99.90;;;;;;4919200;29;20059;-73
2022/07/04 05:13:19;;;;;;;9.23;5.53;;;14.10;99.90;;;;;;4920262;29;20151;-73
2022/07/04 05:15:46;;;;;;;7.20;5.32;;;14.10;99.90;;;;;;4918250;29;20135;-73
2022/07/04 05:18:12;;;;;;;7.57;5.68;;;14.20;99.90;;;;;;4920135;29;20480;-73
2022/07/04 05:20:39;;;;;;;9.15;5.35;;;14.20;99.90;;;;;;4916837;29;20120;-75
2022/07/04 05:23:05;;;;;;;6.90;6.00;;;14.30;99.90;;;;;;4919001;29;20408;-73
2022/07/04 05:25:32;;;;;;;13.25;7.00;;;14.40;99.90;;;;;;4918708;29;20516;-74
2022/07/04 05:27:58;;;;;;;9.20;6.15;;;14.50;99.90;;;;;;4906502;29;20051;-74
2022/07/04 05:30:23;;;;;;;7.25;5.53;;;14.50;99.90;;;;;;4918650;29;20059;-74
2022/07/04 05:32:49;;;;;;;6.78;5.40;;;14.60;99.90;;;;;;4912328;29;20484;-73
2022/07/04 05:35:15;;;;;;;5.97;5.30;;;14.70;99.90;;;;;;4906808;29;20039;-75
2022/07/04 05:37:40;;;;;;;9.43;5.85;;;14.80;99.90;;;;;;4916663;29;20052;-73
2022/07/04 05:40:07;;;;;;;6.28;5.03;;;14.90;99.90;;;;;;4911386;29;20052;-73
2022/07/04 05:42:34;;;;;;;8.45;5.93;;;15.00;99.90;;;;;;4919591;29;20499;-75
2022/07/04 05:45:00;;;;;;;8.40;5.55;;;15.10;99.90;;;;;;4919565;29;20047;-74
2022/07/04 05:47:26;;;;;;;11.55;5.78;;;15.20;99.90;;;;;;4918907;29;20051;-74
2022/07/04 05:49:52;;;;;;;7.90;5.68;;;15.30;99.90;;;;;;4917838;29;20059;-73
2022/07/04 05:52:18;;;;;;;7.93;5.95;;;15.40;99.90;;;;;;4908589;29;20143;-75
2022/07/04 05:54:43;;;;;;;10.60;6.05;;;15.50;99.90;;;;;;4909814;29;20399;-74
2022/07/04 05:57:09;;;;;;;6.85;5.70;;;15.60;99.90;;;;;;4917250;29;20051;-73
2022/07/04 05:59:35;;;;;;;10.32;5.78;;;15.70;99.90;;;;;;4920365;29;20043;-73
2022/07/04 06:02:01;;;;;;;8.45;6.53;;;15.80;99.90;;;;;;4919987;29;20043;-73
2022/07/04 06:04:26;;;;;;;9.43;5.63;;;15.90;99.90;;;;;;4916834;29;20055;-73
2022/07/04 06:06:52;;;;;;;11.40;5.60;;;16.00;99.90;;;;;;4913577;29;20052;-73
2022/07/04 06:09:18;;;;;;;11.13;6.07;;;16.20;99.90;;;;;;4919504;29;20044;-74
2022/07/04 06:11:44;;;;;;;5.97;5.03;;;16.30;99.90;;;;;;4916612;28;20043;-75
2022/07/04 06:14:10;;;;;;;6.82;5.13;;;16.50;99.90;;;;;;4922065;29;20067;-73
2022/07/04 06:16:35;;;;;;;8.60;4.97;;;16.60;99.90;;;;;;4913786;29;20843;-75
2022/07/04 06:19:01;;;;;;;6.13;4.97;;;16.80;99.90;;;;;;4932156;29;20066;-73
2022/07/04 06:21:27;;;;;;;7.93;5.07;;;16.90;99.90;;;;;;4921919;28;20199;-74
2022/07/04 06:23:53;;;;;;;7.78;5.03;;;17.10;99.90;;;;;;4914278;29;20841;-73
2022/07/04 06:26:19;;;;;;;7.30;3.22;;;18.10;99.90;;;;;;4904443;29;20059;-71
2022/07/04 06:28:45;;;;;;;4.60;4.18;;;19.40;99.90;;;;;;4908094;29;20106;-72
2022/07/04 06:31:12;;;;;;;5.07;4.03;;;20.40;99.90;;;;;;4916552;29;20210;-72
2022/07/04 06:35:44;;;;;;;7.72;4.10;;;21.50;99.90;;;;;;4923117;29;20887;-74
2022/07/04 06:36:24;;;;;;;8.00;4.15;;;22.20;99.90;;;;;;4920417;29;20158;-74
2022/07/04 06:38:49;;;;;;;7.47;4.63;;;23.00;99.90;;;;;;4915416;29;20132;-72
2022/07/04 06:41:15;;;;;;;5.28;3.78;;;23.50;99.90;;;;;;4913654;29;20857;-73
2022/07/04 06:43:41;;;;;;;6.57;4.13;;;23.90;99.90;;;;;;4921713;29;20052;-73
2022/07/04 06:46:07;;;;;;;4.47;3.55;;;24.30;99.90;;;;;;4924122;29;20055;-72
2022/07/04 06:48:32;;;;;;;4.45;3.97;;;24.50;99.90;;;;;;4914801;29;20070;-74
2022/07/04 06:50:58;;;;;;;6.53;3.35;;;24.40;99.90;;;;;;4920750;29;20048;-73
2022/07/04 06:53:24;;;;;;;8.05;4.47;;;24.90;99.90;;;;;;4914736;29;20150;-74
2022/07/04 06:55:49;;;;;;;5.22;3.28;;;25.30;99.90;;;;;;4906917;29;20058;-72
2022/07/04 06:58:15;;;;;;;5.28;3.65;;;25.20;99.90;;;;;;4915201;29;20830;-74
2022/07/04 07:00:41;;;;;;;4.57;2.80;;;25.50;99.90;;;;;;4916249;29;20059;-73
2022/07/04 07:03:07;;;;;;;3.47;3.00;;;25.80;99.90;;;;;;4926034;29;20054;-73
2022/07/04 07:05:36;;;;;;;4.85;2.85;;;25.60;99.90;;;;;;4920120;29;20052;-73
2022/07/04 07:08:03;;;;;;;4.15;2.58;;;25.90;99.90;;;;;;4917073;29;20527;-74
2022/07/04 07:10:29;;;;;;;5.03;2.45;;;25.90;99.80;;;;;;4919179;29;20063;-74
2022/07/04 07:12:54;;;;;;;3.65;2.67;;;25.40;99.20;;;;;;4916002;29;20052;-75
2022/07/04 07:15:20;;;;;;;5.25;2.92;;;25.20;99.60;;;;;;4922546;29;20080;-73
2022/07/04 07:17:46;;;;;;;3.63;2.30;;;25.10;99.50;;;;;;4920391;29;20079;-74
2022/07/04 07:20:13;;;;;;;4.72;2.33;;;25.30;99.10;;;;;;4908999;29;20052;-72
2022/07/04 07:22:40;;;;;;;3.10;2.30;;;24.90;99.10;;;;;;4913367;29;20139;-74
2022/07/04 07:25:06;;;;;;;6.45;2.50;;;24.70;99.10;;;;;;4920081;29;20047;-73
2022/07/04 07:27:32;;;;;;;3.92;2.60;;;24.10;99.70;;;;;;4921727;29;20338;-75
2022/07/04 07:29:58;;;;;;;6.07;2.83;;;23.70;99.90;;;;;;4910406;28;20571;-74
2022/07/04 07:32:23;;;;;;;4.78;2.70;;;23.10;99.90;;;;;;4905466;29;20059;-74
2022/07/04 07:34:49;;;;;;;2.42;2.22;;;23.50;99.90;;;;;;4922948;28;20113;-73
2022/07/04 07:37:17;;;;;;;4.18;2.30;;;24.30;99.90;;;;;;4920694;29;20047;-73
2022/07/04 07:39:43;;;;;;;5.32;2.85;;;24.60;99.40;;;;;;4914430;29;20051;-73
2022/07/04 07:42:09;;;;;;;6.53;2.50;;;24.10;99.30;;;;;;4914766;29;20048;-74
2022/07/04 07:44:34;;;;;;;5.82;2.50;;;23.80;99.60;;;;;;4917713;29;20129;-72
2022/07/04 07:47:00;;;;;;;4.45;2.63;;;23.90;99.60;;;;;;4913614;29;20104;-72
2022/07/04 07:49:26;;;;;;;7.60;3.03;;;24.80;99.00;;;;;;4905503;29;20051;-73
2022/07/04 07:51:52;;;;;;;9.52;2.53;;;25.60;97.80;;;;;;4918052;28;20613;-72
2022/07/04 07:54:18;;;;;;;4.20;2.60;;;26.30;97.10;;;;;;4904195;29;20849;-73
2022/07/04 07:56:44;;;;;;;12.77;3.13;;;26.60;96.20;;;;;;4909951;29;20043;-72
2022/07/04 07:59:10;;;;;;;2.20;1.65;;;26.70;95.20;;;;;;4920520;29;20159;-73
2022/07/04 08:01:36;;;;;;;4.25;2.08;;;26.60;95.20;;;;;;4919166;29;20051;-73
2022/07/04 08:06:45;;;;;;;6.20;2.55;;;26.60;93.40;;;;;;4916343;29;20058;-72
2022/07/04 08:09:14;;;;;;;5.07;2.53;;;25.80;94.80;;;;;;4917959;28;20044;-72
2022/07/04 08:11:41;;;;;;;4.60;1.95;;;25.00;95.30;;;;;;4924957;29;20052;-72
2022/07/04 08:14:07;;;;;;;2.75;1.83;;;24.20;95.40;;;;;;4914091;29;20051;-72
2022/07/04 08:16:33;;;;;;;6.80;1.95;;;24.00;95.60;;;;;;4918505;29;20130;-74
2022/07/04 08:18:59;;;;;;;3.60;2.38;;;24.40;95.50;;;;;;4916920;29;20051;-73
2022/07/04 08:21:26;;;;;;;5.28;2.08;;;24.80;94.20;;;;;;4918457;29;20048;-73
2022/07/04 08:23:52;;;;;;;5.25;2.00;;;25.20;94.50;;;;;;4917167;29;20127;-72
2022/07/04 08:26:18;;;;;;;4.82;1.92;;;25.50;94.00;;;;;;4912554;29;20459;-74
2022/07/04 08:28:44;;;;;;;4.35;2.00;;;26.30;94.00;;;;;;4917463;29;20048;-73
2022/07/04 08:31:09;;;;;;;3.72;1.83;;;26.60;93.50;;;;;;4913946;29;20063;-74
2022/07/04 08:33:35;;;;;;;4.55;1.80;;;25.90;93.40;;;;;;4906192;29;20048;-74
2022/07/04 08:36:01;;;;;;;5.10;1.75;;;26.00;93.40;;;;;;4911998;29;20046;-74
2022/07/04 08:38:26;;;;;;;4.07;1.83;;;26.50;93.70;;;;;;4922561;29;20055;-73
2022/07/04 08:40:56;;;;;;;3.60;1.80;;;26.60;92.20;;;;;;4917828;28;20308;-74
2022/07/04 08:43:23;;;;;;;5.45;1.73;;;26.20;92.50;;;;;;4920737;29;20050;-73
2022/07/04 08:45:51;;;;;;;5.47;2.10;;;25.60;92.90;;;;;;4920613;29;20806;-73
2022/07/04 08:48:21;;;;;;;2.20;2.00;;;25.10;92.20;;;;;;4906192;29;20048;-73
2022/07/04 08:51:11;;;;;;;2.47;1.70;;;25.10;92.60;;;;;;4915376;29;20054;-73
2022/07/04 08:53:39;;;;;;;5.00;2.08;;;25.00;93.30;;;;;;4915932;29;20532;-73
2022/07/04 08:58:55;;;;;;;4.82;1.80;;;24.30;93.30;;;;;;4917908;29;20075;-74
2022/07/04 09:01:21;;;;;;;5.18;2.90;;;24.20;93.30;;;;;;4917053;29;20119;-74
2022/07/04 09:03:49;;;;;;;2.90;1.98;;;24.10;93.40;;;;;;4925134;29;20055;-75
2022/07/04 09:06:15;;;;;;;2.55;1.35;;;24.10;91.50;;;;;;4919545;29;20043;-75
2022/07/04 09:08:41;;;;;;;3.40;1.48;;;23.80;92.60;;;;;;4914688;29;20043;-74
2022/07/04 09:11:07;;;;;;;2.03;1.35;;;24.10;92.50;;;;;;4920525;29;20480;-74
2022/07/04 09:13:33;;;;;;;1.67;1.58;;;25.00;92.30;;;;;;4917524;28;20088;-73
2022/07/04 09:16:01;;;;;;;2.95;1.38;;;25.70;91.80;;;;;;4925879;28;20047;-74
2022/07/04 09:18:35;;;;;;;1.30;1.20;;;26.30;91.40;;;;;;4927333;29;20146;-73
2022/07/04 09:21:04;;;;;;;1.55;1.20;;;26.10;90.00;;;;;;4925607;28;20122;-73
2022/07/04 09:23:32;;;;;;;5.65;2.10;;;26.50;91.10;;;;;;4917083;29;20058;-75
2022/07/04 09:26:10;;;;;;;2.47;1.40;;;26.20;91.50;;;;;;4920580;29;20129;-73
2022/07/04 09:28:37;;;;;;;3.55;1.55;;;25.60;90.80;;;;;;4919043;29;20067;-75
2022/07/04 09:31:20;;;;;;;2.80;1.23;;;25.20;92.00;;;;;;4926639;29;20051;-75
2022/07/04 09:33:47;;;;;;;1.95;1.60;;;24.30;91.50;;;;;;4910265;29;20083;-74
2022/07/04 09:36:14;;;;;;;2.53;1.45;;;23.90;92.40;;;;;;4915100;29;20103;-76
2022/07/04 09:38:39;;;;;;;1.73;1.42;;;23.60;92.90;;;;;;4919709;29;20399;-73
2022/07/04 09:44:00;;;;;;;2.25;1.33;;;23.00;93.40;;;;;;4919643;29;20063;-73
2022/07/04 09:46:26;;;;;;;2.75;1.35;;;22.70;93.20;;;;;;4919078;29;20063;-74
2022/07/04 09:48:52;;;;;;;2.30;1.10;;;22.60;93.60;;;;;;4922643;29;20051;-73
2022/07/04 09:51:35;;;;;;;1.45;1.30;;;23.00;93.20;;;;;;4928040;29;20052;-75
2022/07/04 09:54:22;;;;;;;2.45;1.38;;;23.90;93.00;;;;;;4918087;29;20066;-73
2022/07/04 09:56:53;;;;;;;2.95;1.30;;;24.50;91.30;;;;;;4927142;29;20154;-74
2022/07/04 09:59:19;;;;;;;1.73;1.27;;;25.20;92.40;;;;;;4921996;29;20047;-73
2022/07/04 10:01:46;;;;;;;4.03;1.75;;;25.70;91.90;;;;;;4922796;28;20094;-73
2022/07/04 10:04:13;;;;;;;3.30;1.60;;;25.60;91.70;;;;;;4916236;29;20055;-73
2022/07/04 10:06:43;;;;;;;2.17;1.20;;;25.60;90.20;;;;;;4922341;29;20055;-74
2022/07/04 10:09:19;;;;;;;1.38;1.10;;;25.20;88.90;;;;;;4922762;29;20055;-72
2022/07/04 10:11:46;;;;;;;3.33;1.10;;;25.40;88.70;;;;;;4933829;29;20499;-72
2022/07/04 10:14:13;;;;;;;0.75;0.75;;;25.90;90.20;;;;;;4923416;28;20090;-74
2022/07/04 10:16:41;;;;;;;2.78;0.80;;;26.30;90.00;;;;;;4912336;29;20050;-74
2022/07/04 10:19:09;;;;;;;2.33;1.30;;;26.50;89.00;;;;;;4923362;29;20053;-74
2022/07/04 10:21:35;;;;;;;0.95;0.95;;;26.50;88.60;;;;;;4932043;29;20768;-73
2022/07/04 10:24:03;;;;;;;1.65;1.15;;;26.60;89.30;;;;;;4921416;29;20063;-73
2022/07/04 10:26:29;;;;;;;3.70;1.30;;;26.70;86.60;;;;;;4921263;29;20666;-73
2022/07/04 10:28:56;;;;;;;1.88;1.20;;;26.10;85.10;;;;;;4932519;28;20059;-73
2022/07/04 10:31:26;;;;;;;3.15;1.77;;;25.90;84.50;;;;;;4931162;29;20110;-73
2022/07/04 10:33:54;;;;;;;1.45;0.90;;;26.20;86.30;;;;;;4923180;29;20060;-74
2022/07/04 10:36:21;;;;;;;1.80;0.88;;;26.10;83.60;;;;;;4926379;29;20079;-72
2022/07/04 10:38:51;;;;;;;3.85;1.27;;;26.10;86.40;;;;;;4923867;29;20051;-73
2022/07/04 10:41:20;;;;;;;1.60;0.75;;;26.40;83.60;;;;;;4925958;29;20051;-75
2022/07/04 10:43:59;;;;;;;1.33;1.05;;;26.60;85.90;;;;;;4920674;29;20833;-72
2022/07/04 10:46:27;;;;;;;1.20;0.95;;;26.70;84.20;;;;;;4921869;29;20052;-73
2022/07/04 10:48:56;;;;;;;4.32;0.95;;;26.50;84.70;;;;;;4922126;29;20093;-75
2022/07/04 10:51:44;;;;;;;2.40;1.25;;;26.90;86.80;;;;;;4912385;29;20106;-72
2022/07/04 10:54:14;;;;;;;4.25;1.30;;;26.90;81.40;;;;;;4919328;29;20052;-72
2022/07/04 10:56:41;;;;;;;2.70;1.00;;;26.90;82.60;;;;;;4922096;29;20055;-76
2022/07/04 10:59:17;;;;;;;3.22;1.33;;;27.10;84.80;;;;;;4917222;29;20052;-72
2022/07/04 11:02:09;;;;;;;2.28;1.10;;;27.20;83.40;;;;;;4923202;29;20048;-76
2022/07/04 11:04:49;;;;;;;1.52;1.27;;;26.70;81.60;;;;;;4921349;29;20051;-73
2022/07/04 11:07:16;;;;;;;1.30;1.20;;;26.20;84.40;;;;;;4908923;29;20409;-73
2022/07/04 11:09:42;;;;;;;1.73;1.13;;;26.10;86.40;;;;;;4927223;29;20059;-72
2022/07/04 11:12:09;;;;;;;2.70;1.50;;;26.10;85.40;;;;;;4903589;29;20834;-73
2022/07/04 11:14:48;;;;;;;1.40;1.30;;;26.30;86.10;;;;;;4917716;29;20048;-73
2022/07/04 11:17:15;;;;;;;5.72;1.40;;;26.50;86.60;;;;;;4908662;29;20048;-72
2022/07/04 11:19:41;;;;;;;1.75;1.40;;;26.50;85.20;;;;;;4904038;29;20048;-73
2022/07/04 11:22:10;;;;;;;3.05;1.40;;;26.20;84.00;;;;;;4918159;29;21670;-73
2022/07/04 11:24:37;;;;;;;1.92;1.50;;;25.50;83.70;;;;;;4921392;29;20058;-74
2022/07/04 11:27:03;;;;;;;2.42;1.33;;;25.00;84.40;;;;;;4920919;29;20062;-73
2022/07/04 11:29:30;;;;;;;2.25;1.40;;;24.70;84.50;;;;;;4930495;29;20051;-72
2022/07/04 11:31:56;;;;;;;3.58;1.50;;;24.60;85.30;;;;;;4931554;28;20318;-75
2022/07/04 11:34:23;;;;;;;0.93;0.90;;;24.60;87.20;;;;;;4928817;29;20062;-71
2022/07/04 11:36:51;;;;;;;2.30;1.10;;;24.60;85.20;;;;;;4920629;29;20055;-73
2022/07/04 11:39:20;;;;;;;1.15;1.00;;;24.90;87.60;;;;;;4933150;29;20043;-74
2022/07/04 11:47:22;;;;;;;1.25;1.10;;;25.00;85.00;;;;;;4916716;29;20053;-74
2022/07/04 11:49:49;;;;;;;1.52;1.10;;;24.90;86.10;;;;;;4939905;28;20879;-74
2022/07/04 11:52:16;;;;;;;1.23;1.08;;;24.60;84.80;;;;;;4934259;28;20476;-72
2022/07/04 11:54:45;;;;;;;1.48;1.33;;;24.40;85.60;;;;;;4911257;29;20058;-73
2022/07/04 11:57:20;;;;;;;1.38;1.20;;;24.60;86.00;;;;;;4910859;29;20935;-72
2022/07/04 12:00:18;;;;;;;1.25;1.10;;;24.80;86.20;;;;;;4925396;28;20094;-72
2022/07/04 12:02:47;;;;;;;1.77;0.90;;;24.70;84.70;;;;;;4903294;29;20067;-74
2022/07/04 12:05:13;;;;;;;2.97;1.25;;;24.60;84.10;;;;;;4901111;29;20837;-74
2022/07/04 12:07:42;;;;;;;1.38;1.15;;;24.20;84.90;;;;;;4904108;29;20074;-74
2022/07/04 12:10:30;;;;;;;1.40;1.20;;;24.30;85.70;;;;;;4917105;29;20043;-71
2022/07/04 12:13:03;;;;;;;1.00;1.00;;;24.50;85.60;;;;;;4908742;29;20341;-76
2022/07/04 12:15:44;;;;;;;1.25;1.17;;;24.60;85.10;;;;;;4917568;29;20055;-71
2022/07/04 12:18:31;;;;;;;0.70;0.70;;;24.70;83.80;;;;;;4920308;29;20058;-73
2022/07/04 12:21:15;;;;;;;3.13;1.30;;;24.50;85.20;;;;;;4916049;29;20492;-73
2022/07/04 12:23:42;;;;;;;1.23;0.90;;;24.40;84.20;;;;;;4914005;29;20056;-72
2022/07/04 12:26:09;;;;;;;1.50;1.15;;;24.90;84.20;;;;;;4915710;29;20091;-72
2022/07/04 12:28:36;;;;;;;3.85;1.20;;;24.60;83.90;;;;;;4912990;29;20060;-73
2022/07/04 12:31:04;;;;;;;1.10;0.85;;;24.00;83.90;;;;;;4919540;29;20063;-72
2022/07/04 12:33:30;;;;;;;2.25;0.82;;;23.90;84.10;;;;;;4916987;28;20699;-74
2022/07/04 12:35:58;;;;;;;0.82;0.80;;;24.10;83.10;;;;;;4913661;29;20043;-73
2022/07/04 12:38:27;;;;;;;2.38;0.93;;;24.10;81.70;;;;;;4917575;29;20367;-72
2022/07/04 12:40:53;;;;;;;1.27;0.93;;;24.20;81.10;;;;;;4926700;29;20050;-75
2022/07/04 12:43:19;;;;;;;3.08;1.13;;;24.00;81.00;;;;;;4918268;29;20059;-72
2022/07/04 12:45:51;;;;;;;1.30;1.00;;;24.00;82.40;;;;;;4915013;29;20132;-73
2022/07/04 12:48:23;;;;;;;2.45;0.93;;;24.20;83.90;;;;;;4920761;29;20111;-75
2022/07/04 12:50:49;;;;;;;3.10;1.08;;;24.40;85.10;;;;;;4918273;29;20051;-73
2022/07/04 12:53:15;;;;;;;1.58;0.80;;;24.60;83.00;;;;;;4919661;29;20054;-73
2022/07/04 12:55:43;;;;;;;1.55;0.80;;;24.70;81.30;;;;;;4917547;29;20114;-73
2022/07/04 12:58:09;;;;;;;2.00;1.13;;;24.90;81.90;;;;;;4919935;29;20138;-72
2022/07/04 13:00:36;;;;;;;1.25;1.15;;;25.00;82.10;;;;;;4932124;29;20674;-73
2022/07/04 13:03:02;;;;;;;1.50;1.20;;;24.90;82.60;;;;;;4927738;28;20222;-73
2022/07/04 13:05:28;;;;;;;1.55;1.15;;;24.70;81.60;;;;;;4918142;29;20051;-73
2022/07/04 13:07:54;;;;;;;1.27;1.00;;;24.70;82.50;;;;;;4919707;29;20052;-74